aviador You're here:

PAKU Decoded Metar

KUPARUK in AK, USA
Report Time2018-04-26 12:46:00
UTC Time2018-04-26 13:22:59
Flight Rules vfr VFR
Wind220° at 05 kt
W.Decomp.*RWY 24: 3.7 kt HW 3.3 kt LCW
W.Rank220° ranks 16
Current wind is below 220° avg. (9.7)
Visibility9999 m
Phenomena:N/A
Clouds:Few 180 Hf
Expected CloudBase > 400 ft AGL from Temp-Dew spread
CeilingNone
Temp-10°C (ISA -25)
Dew Point-11°C (92% RH)
AAT-14.9°C
QNH1012 hPa
Density Alt-3,048 ft
Elevation7 ft
Report Wrong Elevation
Raw Report
PAKU 261246Z 22005KT 7SM R24/P6000FT FEW180 M10/M11 A2987=

Extra information for PAKU:More info

Metar Taf Metar & Taf Last 4 Metars F.Rules Stats Wind Profile Meteogram Temp Stats Airport Information Weather charts Add Link Nearby VenuesMetar ALERT Operation Metar Decoded Social comments

AIRNAV info for PAKU